To NAV CANADA Home Page Login to a new session Search on AWWS site Feedback and Comments Disclaimer Vers la page française équivalente Tips FAQ What's new on the site To the Forecasts and Observations / NOTAM section To "File a Flight Plan" website Publications and other links Update of the User's profile FIC Telephone Numbers My Weather Data Folder Route Weather Data Regional Weather Data Local Weather Data To the Forecasts and Observations / NOTAM section
Request Generated 02/23/2017 at 20:47:37 UTC . Weather information available at that time is displayed.

METAR/TAF

CALGARY INTL/AB    

METAR CYYC 232000Z 19009KT 10SM BKN025 BKN250 M03/M08 A2997 RMK
SC5CI1 SLP210=
METAR CYYC 231900Z 20009KT 10SM BKN025 M03/M07 A2999 RMK SC5 SLP214=
SPECI CYYC 231827Z 19008KT 6SM HZ SCT016 BKN025 M04/M07 A3000 RMK
SF3SC3 SLP218=
METAR CYYC 231800Z 17008KT 6SM HZ BKN013 BKN047 M04/M07 A3001 RMK
SF6SC1 SLP221=

TAF CYYC 232038Z 2321/2418 19012KT P6SM BKN025 TEMPO 2323/2402 5SM
-SHSN
FM240300 16015KT P6SM SCT030
FM240500 18005KT P6SM FEW160 TEMPO 2407/2411 3/4SM BR VV006
FM241100 VRB03KT 1/2SM FZFG VV004 TEMPO 2411/2414 5SM BR SCT006
FM241400 31008KT 6SM -SHSN BKN012 TEMPO 2414/2418 11/2SM -SHSN
VV012
BECMG 2416/2418 35018KT
RMK NXT FCST BY 240000Z=
Your time UTC time
Weather data provided by Environment Canada and NAV CANADA